createdAt,value
2019-06-08T00:02:03.742Z,0.53
2019-06-08T00:04:32.604Z,0.70
2019-06-08T00:07:01.447Z,0.50
2019-06-08T00:09:30.224Z,0.60
2019-06-08T00:11:59.100Z,0.50
2019-06-08T00:14:27.902Z,0.60
2019-06-08T00:16:56.749Z,0.60
2019-06-08T00:19:25.595Z,0.60
2019-06-08T00:21:54.422Z,0.50
2019-06-08T00:24:24.069Z,0.70
2019-06-08T00:26:53.074Z,0.67
2019-06-08T00:29:22.440Z,0.60
2019-06-08T00:31:51.364Z,0.63
2019-06-08T00:34:20.670Z,0.90
2019-06-08T00:36:49.511Z,0.60
2019-06-08T00:39:18.937Z,0.57
2019-06-08T00:41:47.876Z,0.50
2019-06-08T00:44:17.148Z,0.67
2019-06-08T00:46:46.025Z,0.60
2019-06-08T00:49:14.986Z,0.70
2019-06-08T00:51:43.742Z,0.60
2019-06-08T00:54:12.525Z,0.60
2019-06-08T00:56:41.333Z,0.80
2019-06-08T00:59:10.250Z,0.70
2019-06-08T01:01:39.048Z,0.60
2019-06-08T01:04:07.814Z,0.57
2019-06-08T01:06:36.713Z,0.60
2019-06-08T01:09:06.787Z,0.70
2019-06-08T01:11:35.632Z,0.63
2019-06-08T01:14:04.618Z,0.53
2019-06-08T01:16:33.479Z,0.70
2019-06-08T01:19:02.314Z,0.70
2019-06-08T01:21:31.113Z,0.50
2019-06-08T01:24:00.044Z,0.90
2019-06-08T01:26:30.177Z,0.90
2019-06-08T01:28:59.256Z,0.80
2019-06-08T01:31:28.411Z,0.80
2019-06-08T01:33:57.272Z,0.53
2019-06-08T01:36:27.375Z,0.70
2019-06-08T01:38:56.498Z,0.70
2019-06-08T01:41:25.507Z,0.60
2019-06-08T01:43:54.422Z,0.67
2019-06-08T01:46:23.829Z,0.70
2019-06-08T01:48:52.718Z,0.80
2019-06-08T01:51:22.507Z,0.60
2019-06-08T01:53:51.360Z,0.70
2019-06-08T01:56:20.228Z,0.60
2019-06-08T01:58:49.124Z,1.33
2019-06-08T02:01:17.942Z,0.80
2019-06-08T02:03:46.800Z,0.70
2019-06-08T02:06:15.617Z,1.00
2019-06-08T02:08:44.558Z,0.70
2019-06-08T02:11:13.408Z,0.80
2019-06-08T02:13:42.328Z,0.83
2019-06-08T02:16:11.229Z,0.90
2019-06-08T02:18:50.543Z,0.80
2019-06-08T02:21:10.638Z,0.70
2019-06-08T02:23:39.751Z,0.70
2019-06-08T02:26:08.566Z,0.70
2019-06-08T02:28:37.496Z,0.70
2019-06-08T02:31:06.428Z,0.67
2019-06-08T02:33:37.177Z,0.67
2019-06-08T02:36:05.865Z,0.80
2019-06-08T02:38:36.112Z,0.80
2019-06-08T02:41:05.950Z,0.70
2019-06-08T02:43:35.806Z,1.00
2019-06-08T02:46:05.498Z,0.80
2019-06-08T02:48:37.246Z,0.70
2019-06-08T02:51:06.763Z,0.60
2019-06-08T02:53:37.812Z,1.03
2019-06-08T02:56:06.338Z,0.80
2019-06-08T02:58:36.932Z,0.80
2019-06-08T03:01:06.526Z,0.80
2019-06-08T03:03:38.472Z,0.77
2019-06-08T03:06:07.164Z,0.80
2019-06-08T03:08:39.197Z,0.80
2019-06-08T03:11:08.825Z,0.60
2019-06-08T03:13:39.829Z,0.70
2019-06-08T03:16:08.290Z,0.63
2019-06-08T03:18:38.277Z,0.70
2019-06-08T03:21:07.645Z,0.90
2019-06-08T03:23:38.595Z,0.93
2019-06-08T03:26:06.994Z,0.80
2019-06-08T03:28:37.347Z,0.80
2019-06-08T03:31:06.398Z,0.70
2019-06-08T03:33:40.175Z,0.70
2019-06-08T03:36:05.813Z,0.80
2019-06-08T03:38:35.805Z,0.83
2019-06-08T03:41:04.914Z,0.80
2019-06-08T03:43:35.366Z,0.90
2019-06-08T03:46:04.408Z,1.00
2019-06-08T03:48:34.889Z,0.70
2019-06-08T03:51:03.896Z,0.70
2019-06-08T03:53:32.683Z,0.77
2019-06-08T03:56:01.531Z,0.70
2019-06-08T03:58:33.830Z,0.70
2019-06-08T04:01:00.832Z,0.80
2019-06-08T04:03:29.620Z,0.87
2019-06-08T04:05:58.444Z,1.00
2019-06-08T04:08:27.285Z,0.90
2019-06-08T04:10:56.089Z,0.87
2019-06-08T04:13:24.894Z,0.80
2019-06-08T04:15:53.686Z,0.70
2019-06-08T04:18:22.532Z,0.83
2019-06-08T04:20:51.787Z,0.73
2019-06-08T04:23:20.585Z,0.80
2019-06-08T04:25:50.668Z,0.80
2019-06-08T04:28:19.883Z,0.90
2019-06-08T04:30:49.910Z,0.60
2019-06-08T04:33:19.172Z,0.70
2019-06-08T04:35:48.010Z,0.87
2019-06-08T04:38:16.811Z,0.53
2019-06-08T04:40:47.914Z,0.77
2019-06-08T04:43:16.230Z,0.80
2019-06-08T04:45:47.197Z,0.60
2019-06-08T04:48:15.544Z,0.57
2019-06-08T04:50:45.463Z,0.83
2019-06-08T04:53:14.884Z,0.63
2019-06-08T04:55:45.125Z,0.60
2019-06-08T04:58:14.434Z,0.80
2019-06-08T05:00:45.554Z,0.70
2019-06-08T05:03:13.867Z,0.73
2019-06-08T05:05:43.357Z,0.90
2019-06-08T05:08:12.305Z,0.63
2019-06-08T05:10:41.462Z,0.67
2019-06-08T05:13:11.653Z,0.70
2019-06-08T05:15:41.367Z,0.80
2019-06-08T05:18:10.656Z,0.70
2019-06-08T05:20:42.081Z,0.87
2019-06-08T05:23:09.957Z,0.67
2019-06-08T05:25:39.112Z,0.70
2019-06-08T05:28:07.946Z,0.57
2019-06-08T05:30:36.834Z,0.97
2019-06-08T05:33:05.623Z,0.80
2019-06-08T05:35:34.476Z,0.73
2019-06-08T05:38:03.467Z,1.03
2019-06-08T05:40:32.360Z,0.60
2019-06-08T05:43:01.235Z,0.70
2019-06-08T05:45:30.115Z,0.63
2019-06-08T05:47:58.944Z,0.70
2019-06-08T05:50:27.832Z,0.67
2019-06-08T05:52:56.637Z,0.87
2019-06-08T05:55:25.603Z,0.80
2019-06-08T05:57:54.400Z,0.80
2019-06-08T06:00:23.453Z,0.90
2019-06-08T06:02:52.268Z,0.60
2019-06-08T06:05:21.383Z,0.87
2019-06-08T06:07:51.218Z,0.80
2019-06-08T06:10:20.470Z,0.70
2019-06-08T06:12:49.228Z,0.70
2019-06-08T06:15:18.265Z,1.00
2019-06-08T06:17:48.451Z,0.70
2019-06-08T06:20:17.770Z,0.70
2019-06-08T06:22:47.734Z,0.70
2019-06-08T06:25:17.015Z,0.83
2019-06-08T06:27:45.795Z,0.83
2019-06-08T06:30:15.685Z,0.80
2019-06-08T06:32:45.887Z,0.80
2019-06-08T06:35:15.198Z,0.90
2019-06-08T06:37:44.096Z,0.80
2019-06-08T06:40:12.969Z,0.90
2019-06-08T06:42:42.087Z,0.80
2019-06-08T06:45:11.259Z,0.80
2019-06-08T06:47:40.120Z,1.40
2019-06-08T06:50:09.301Z,0.80
2019-06-08T06:52:38.174Z,0.70
2019-06-08T06:55:07.483Z,0.60
2019-06-08T06:57:36.902Z,0.70
2019-06-08T07:00:07.359Z,0.67
2019-06-08T07:02:36.206Z,0.73
2019-06-08T07:05:06.052Z,0.80
2019-06-08T07:07:35.206Z,0.80
2019-06-08T07:10:04.796Z,0.90
2019-06-08T07:12:33.734Z,0.80
2019-06-08T07:15:02.582Z,0.97
2019-06-08T07:17:31.400Z,0.80
2019-06-08T07:20:00.320Z,0.83
2019-06-08T07:22:29.224Z,1.00
2019-06-08T07:24:58.672Z,1.07
2019-06-08T07:27:27.669Z,0.90
2019-06-08T07:29:56.467Z,0.97
2019-06-08T07:32:25.343Z,0.90
2019-06-08T07:34:55.303Z,1.03
2019-06-08T07:37:24.380Z,0.83
2019-06-08T07:39:53.679Z,0.70
2019-06-08T07:42:22.496Z,0.80
2019-06-08T07:44:51.329Z,1.03
2019-06-08T07:47:20.251Z,0.80
2019-06-08T07:49:49.295Z,0.87
2019-06-08T07:52:18.490Z,1.17
2019-06-08T07:54:48.205Z,1.00
2019-06-08T07:57:17.827Z,0.73
2019-06-08T07:59:47.604Z,1.20
2019-06-08T08:02:17.476Z,0.80
2019-06-08T08:04:46.299Z,0.80
2019-06-08T08:07:15.148Z,0.80
2019-06-08T08:09:44.016Z,0.97
2019-06-08T08:12:12.878Z,0.80
2019-06-08T08:14:41.861Z,0.87
2019-06-08T08:17:10.824Z,1.17
2019-06-08T08:19:39.641Z,0.90
2019-06-08T08:22:22.097Z,0.80
2019-06-08T08:24:39.178Z,0.60
2019-06-08T08:27:08.495Z,0.70
2019-06-08T08:29:38.291Z,0.80
2019-06-08T08:32:09.911Z,0.60
2019-06-08T08:34:38.345Z,0.77
2019-06-08T08:37:09.688Z,0.80
2019-06-08T08:39:37.903Z,0.67
2019-06-08T08:42:08.495Z,0.83
2019-06-08T08:44:37.974Z,0.80
2019-06-08T08:47:07.667Z,0.80
2019-06-08T08:49:38.018Z,0.70
2019-06-08T08:52:08.799Z,0.90
2019-06-08T08:54:37.923Z,0.80
2019-06-08T08:57:08.554Z,1.00
2019-06-08T08:59:38.179Z,0.93
2019-06-08T09:02:08.381Z,0.60
2019-06-08T09:04:38.183Z,0.80
2019-06-08T09:07:10.407Z,0.80
2019-06-08T09:09:38.638Z,0.60
2019-06-08T09:12:08.448Z,0.80
2019-06-08T09:14:41.135Z,0.90
2019-06-08T09:17:08.750Z,0.80
2019-06-08T09:19:38.329Z,0.97
2019-06-08T09:22:08.631Z,0.80
2019-06-08T09:24:39.086Z,0.90
2019-06-08T09:27:08.331Z,1.00
2019-06-08T09:29:38.815Z,0.70
2019-06-08T09:32:08.338Z,0.67
2019-06-08T09:34:38.619Z,0.70
2019-06-08T09:37:08.371Z,0.67
2019-06-08T09:39:38.552Z,1.10
2019-06-08T09:42:09.037Z,1.47
2019-06-08T09:44:38.306Z,1.33
2019-06-08T09:47:12.163Z,0.90
2019-06-08T09:49:37.962Z,0.90
2019-06-08T09:52:08.408Z,0.90
2019-06-08T09:54:38.444Z,1.20
2019-06-08T09:57:09.160Z,0.80
2019-06-08T09:59:38.708Z,0.77
2019-06-08T10:02:12.549Z,0.97
2019-06-08T10:04:39.240Z,1.13
2019-06-08T10:07:08.860Z,0.80
2019-06-08T10:09:38.211Z,1.20
2019-06-08T10:12:09.793Z,0.90
2019-06-08T10:14:38.159Z,1.10
2019-06-08T10:17:08.949Z,1.10
2019-06-08T10:19:37.803Z,0.97
2019-06-08T10:22:08.627Z,0.97
2019-06-08T10:24:41.117Z,1.00
2019-06-08T10:27:11.049Z,1.10
2019-06-08T10:29:38.454Z,0.80
2019-06-08T10:32:09.362Z,1.20
2019-06-08T10:34:38.859Z,0.83
2019-06-08T10:37:12.691Z,1.10
2019-06-08T10:39:38.622Z,1.10
2019-06-08T10:42:10.107Z,1.10
2019-06-08T10:44:38.313Z,1.73
2019-06-08T10:47:09.929Z,1.03
2019-06-08T10:49:38.527Z,0.90
2019-06-08T10:52:10.743Z,0.90
2019-06-08T10:54:38.155Z,1.17
2019-06-08T10:57:07.711Z,0.90
2019-06-08T10:59:40.043Z,1.17
2019-06-08T11:02:13.293Z,1.10
2019-06-08T11:04:38.819Z,1.10
2019-06-08T11:07:13.884Z,1.10
2019-06-08T11:09:39.598Z,1.00
2019-06-08T11:12:14.547Z,1.10
2019-06-08T11:14:40.763Z,0.90
2019-06-08T11:17:11.280Z,1.00
2019-06-08T11:19:40.737Z,1.20
2019-06-08T11:22:14.322Z,1.27
2019-06-08T11:24:40.239Z,1.23
2019-06-08T11:27:12.678Z,1.30
2019-06-08T11:29:39.646Z,1.40
2019-06-08T11:32:11.838Z,1.00
2019-06-08T11:34:39.120Z,1.00
2019-06-08T11:37:11.889Z,0.90
2019-06-08T11:39:38.647Z,0.90
2019-06-08T11:42:10.711Z,0.93
2019-06-08T11:44:38.995Z,1.20
2019-06-08T11:47:12.263Z,1.10
2019-06-08T11:49:39.023Z,0.93
2019-06-08T11:52:09.108Z,1.20
2019-06-08T11:54:40.987Z,1.15
2019-06-08T11:57:11.715Z,1.50
2019-06-08T11:59:41.943Z,0.72
2019-06-08T12:02:13.743Z,1.00
2019-06-08T12:04:41.408Z,1.12
2019-06-08T12:07:12.234Z,0.98
2019-06-08T12:09:40.885Z,0.90
2019-06-08T12:12:16.222Z,0.90
2019-06-08T12:14:40.680Z,1.02
2019-06-08T12:17:13.452Z,1.12
2019-06-08T12:19:40.303Z,1.00
2019-06-08T12:22:11.502Z,1.10
2019-06-08T12:24:42.371Z,0.85
2019-06-08T12:27:24.744Z,0.85
2019-06-08T12:29:40.972Z,1.10
2019-06-08T12:32:12.067Z,1.00
2019-06-08T12:34:40.512Z,1.02
2019-06-08T12:37:14.510Z,1.00
2019-06-08T12:39:39.921Z,0.93
2019-06-08T12:42:16.868Z,1.10
2019-06-08T12:44:39.344Z,1.00
2019-06-08T12:47:13.363Z,0.88
2019-06-08T12:49:40.423Z,0.88
2019-06-08T12:52:12.091Z,1.30
2019-06-08T12:54:39.747Z,1.10
2019-06-08T12:57:13.393Z,1.17
2019-06-08T12:59:39.025Z,0.90
2019-06-08T13:02:12.945Z,0.85
2019-06-08T13:04:39.422Z,1.15
2019-06-08T13:07:10.054Z,1.07
2019-06-08T13:09:38.871Z,1.05
2019-06-08T13:12:09.572Z,1.00
2019-06-08T13:14:38.684Z,1.15
2019-06-08T13:17:08.708Z,0.80
2019-06-08T13:19:38.819Z,0.82
2019-06-08T13:22:08.970Z,0.90
2019-06-08T13:24:38.080Z,0.98
2019-06-08T13:27:07.127Z,1.57
2019-06-08T13:29:35.924Z,0.93
2019-06-08T13:32:04.994Z,1.00
2019-06-08T13:34:33.798Z,1.00
2019-06-08T13:37:02.569Z,0.80
2019-06-08T13:39:31.498Z,0.90
2019-06-08T13:42:00.312Z,1.07
2019-06-08T13:44:29.066Z,0.93
2019-06-08T13:46:58.001Z,0.90
2019-06-08T13:49:29.824Z,1.10
2019-06-08T13:51:58.382Z,1.07
2019-06-08T13:54:30.900Z,0.98
2019-06-08T13:56:59.031Z,0.88
2019-06-08T13:59:30.856Z,1.02
2019-06-08T14:01:58.602Z,1.02
2019-06-08T14:04:27.611Z,0.80
2019-06-08T14:06:58.186Z,0.90
2019-06-08T14:09:31.400Z,0.90
2019-06-08T14:11:58.608Z,1.10
2019-06-08T14:14:29.023Z,0.93
2019-06-08T14:16:58.855Z,0.82
2019-06-08T14:19:29.694Z,1.00
2019-06-08T14:21:58.355Z,1.10
2019-06-08T14:24:32.136Z,1.20
2019-06-08T14:26:58.457Z,1.00
2019-06-08T14:29:28.955Z,0.90
2019-06-08T14:31:58.218Z,1.22
2019-06-08T14:34:29.485Z,0.93
2019-06-08T14:36:59.226Z,0.80
2019-06-08T14:39:31.095Z,0.80
2019-06-08T14:41:58.861Z,1.00
2019-06-08T14:44:31.367Z,1.05
2019-06-08T14:46:59.974Z,0.98
2019-06-08T14:49:34.523Z,1.00
2019-06-08T14:51:59.371Z,1.02
2019-06-08T14:54:33.343Z,1.02
2019-06-08T14:56:58.842Z,1.27
2019-06-08T14:59:29.928Z,0.90
2019-06-08T15:01:58.300Z,0.90
2019-06-08T15:04:34.140Z,1.10
2019-06-08T15:06:58.590Z,1.00
2019-06-08T15:09:27.680Z,0.82
2019-06-08T15:11:58.242Z,0.90
2019-06-08T15:14:29.272Z,0.90
2019-06-08T15:16:59.073Z,1.20
2019-06-08T15:19:30.401Z,1.00
2019-06-08T15:21:58.649Z,0.80
2019-06-08T15:24:30.662Z,1.27
2019-06-08T15:26:58.441Z,1.07
2019-06-08T15:29:29.589Z,0.90
2019-06-08T15:31:58.359Z,1.60
2019-06-08T15:34:29.584Z,1.50
2019-06-08T15:37:21.096Z,1.20
2019-06-08T15:39:51.693Z,1.00
2019-06-08T15:42:21.992Z,0.70
2019-06-08T15:44:50.934Z,0.60
2019-06-08T15:47:19.727Z,1.20
2019-06-08T15:49:50.440Z,0.80
2019-06-08T15:52:19.190Z,0.90
2019-06-08T15:54:48.537Z,1.50
2019-06-08T15:57:18.000Z,0.82
2019-06-08T15:59:49.219Z,0.82
2019-06-08T16:02:17.552Z,0.80
2019-06-08T16:04:46.367Z,1.17
2019-06-08T16:07:16.540Z,0.98
2019-06-08T16:09:46.185Z,0.90
2019-06-08T16:12:15.314Z,0.90
2019-06-08T16:14:44.160Z,0.95
2019-06-08T16:17:12.977Z,0.98
2019-06-08T16:19:41.918Z,1.00
2019-06-08T16:22:10.947Z,0.88
2019-06-08T16:24:39.841Z,1.10
2019-06-08T16:27:08.648Z,1.40
2019-06-08T16:29:37.428Z,1.00
2019-06-08T16:32:06.379Z,0.90
2019-06-08T16:34:35.597Z,1.20
2019-06-08T16:37:04.804Z,1.45
2019-06-08T16:39:34.834Z,1.20
2019-06-08T16:42:04.064Z,1.32
2019-06-08T16:44:34.202Z,1.27
2019-06-08T16:47:03.285Z,1.20
2019-06-08T16:49:33.274Z,1.00
2019-06-08T16:52:02.381Z,0.90
2019-06-08T16:54:31.222Z,0.93
2019-06-08T16:57:09.399Z,23.90
2019-06-08T16:59:30.731Z,1.60
2019-06-08T17:01:59.598Z,1.00
2019-06-08T17:04:28.843Z,0.98
2019-06-08T17:06:57.872Z,0.93
2019-06-08T17:09:26.665Z,4.40
2019-06-08T17:11:55.394Z,0.90
2019-06-08T17:14:25.147Z,1.00
2019-06-08T17:16:54.244Z,1.10
2019-06-08T17:19:23.123Z,4.70
2019-06-08T17:21:51.984Z,2.45
2019-06-08T17:24:20.937Z,6.07
2019-06-08T17:26:49.827Z,1.90
2019-06-08T17:29:18.816Z,1.17
2019-06-08T17:31:47.761Z,4.97
2019-06-08T17:34:16.631Z,1.37
2019-06-08T17:36:45.495Z,2.00
2019-06-08T17:39:14.320Z,1.00
2019-06-08T17:41:43.225Z,3.40
2019-06-08T17:44:12.120Z,1.30
2019-06-08T17:46:41.402Z,0.83
2019-06-08T17:49:11.777Z,1.00
2019-06-08T17:51:41.861Z,0.90
2019-06-08T17:54:10.830Z,1.60
2019-06-08T17:56:39.737Z,1.13
2019-06-08T17:59:08.672Z,1.07
2019-06-08T18:01:37.728Z,0.90
2019-06-08T18:04:08.117Z,1.10
2019-06-08T18:06:39.878Z,0.97
2019-06-08T18:09:08.293Z,1.80
2019-06-08T18:11:40.135Z,1.60
2019-06-08T18:14:08.774Z,1.40
2019-06-08T18:16:39.445Z,1.37
2019-06-08T18:19:20.683Z,1.40
2019-06-08T18:21:49.552Z,1.20
2019-06-08T18:24:18.439Z,1.23
2019-06-08T18:26:47.526Z,1.20
2019-06-08T18:29:18.151Z,1.03
2019-06-08T18:31:48.121Z,1.10
2019-06-08T18:34:17.923Z,0.90
2019-06-08T18:36:47.958Z,1.20
2019-06-08T18:39:18.348Z,1.03
2019-06-08T18:41:48.409Z,2.27
2019-06-08T18:44:17.607Z,1.43
2019-06-08T18:46:48.244Z,2.23
2019-06-08T18:49:17.913Z,3.37
2019-06-08T18:51:49.240Z,2.97
2019-06-08T18:54:18.907Z,3.27
2019-06-08T18:56:48.861Z,3.43
2019-06-08T18:59:18.462Z,8.77
2019-06-08T19:01:49.472Z,8.63
2019-06-08T19:04:18.127Z,11.90
2019-06-08T19:06:49.703Z,6.43
2019-06-08T19:09:18.943Z,3.00
2019-06-08T19:11:48.671Z,2.23
2019-06-08T19:14:20.777Z,2.20
2019-06-08T19:16:54.326Z,1.50
2019-06-08T19:19:19.693Z,1.70
2019-06-08T19:21:50.343Z,1.33
2019-06-08T19:24:19.397Z,1.70
2019-06-08T19:26:49.040Z,1.67
2019-06-08T19:29:19.465Z,1.60
2019-06-08T19:31:51.267Z,1.30
2019-06-08T19:34:19.402Z,1.30
2019-06-08T19:36:53.481Z,1.30
2019-06-08T19:39:18.894Z,1.37
2019-06-08T19:41:50.244Z,1.37
2019-06-08T19:44:18.622Z,1.20
2019-06-08T19:46:51.237Z,1.50
2019-06-08T19:49:18.267Z,1.20
2019-06-08T19:51:48.524Z,1.10
2019-06-08T19:54:18.454Z,1.17
2019-06-08T19:56:52.144Z,1.17
2019-06-08T19:59:18.480Z,1.33
2019-06-08T20:01:51.332Z,1.13
2019-06-08T20:04:18.787Z,1.00
2019-06-08T20:06:50.363Z,1.60
2019-06-08T20:09:18.704Z,6.10
2019-06-08T20:11:54.147Z,15.60
2019-06-08T20:14:18.122Z,14.73
2019-06-08T20:16:49.356Z,9.00
2019-06-08T20:19:19.081Z,3.50
2019-06-08T20:21:51.297Z,4.73
2019-06-08T20:24:18.529Z,6.33
2019-06-08T20:26:51.719Z,6.27
2019-06-08T20:29:20.104Z,4.00
2019-06-08T20:31:50.375Z,2.40
2019-06-08T20:34:19.073Z,3.10
2019-06-08T20:36:48.744Z,2.23
2019-06-08T20:39:18.132Z,1.90
2019-06-08T20:41:49.786Z,2.00
2019-06-08T20:44:17.461Z,1.60
2019-06-08T20:46:48.957Z,1.40
2019-06-08T20:49:17.268Z,1.53
2019-06-08T20:51:49.378Z,1.93
2019-06-08T20:54:17.245Z,2.10
2019-06-08T20:56:47.945Z,1.40
2019-06-08T20:59:29.555Z,1.60
2019-06-08T21:01:48.783Z,5.30
2019-06-08T21:04:18.238Z,3.60
2019-06-08T21:06:48.675Z,2.77
2019-06-08T21:09:18.571Z,1.90
2019-06-08T21:11:49.813Z,1.77
2019-06-08T21:14:18.417Z,1.30
2019-06-08T21:16:49.277Z,1.40
2019-06-08T21:19:17.870Z,1.60
2019-06-08T21:21:47.873Z,1.20
2019-06-08T21:24:17.407Z,2.00
2019-06-08T21:26:50.806Z,24.53
2019-06-08T21:29:17.587Z,24.77
2019-06-08T21:31:49.309Z,18.07
2019-06-08T21:34:18.171Z,10.70
2019-06-08T21:36:49.361Z,7.47
2019-06-08T21:39:17.776Z,5.70
2019-06-08T21:41:50.079Z,5.10
2019-06-08T21:44:17.142Z,4.87
2019-06-08T21:46:48.807Z,3.80
2019-06-08T21:49:18.260Z,4.27
2019-06-08T21:51:48.771Z,4.77
2019-06-08T21:54:17.759Z,4.73
2019-06-08T21:56:48.944Z,2.70
2019-06-08T21:59:18.206Z,2.20
2019-06-08T22:01:50.397Z,2.67
2019-06-08T22:04:18.541Z,3.37
2019-06-08T22:06:48.048Z,4.43
2019-06-08T22:09:17.651Z,4.60
2019-06-08T22:11:47.169Z,3.67
2019-06-08T22:14:16.081Z,3.37
2019-06-08T22:16:47.371Z,2.83
2019-06-08T22:19:15.380Z,3.63
2019-06-08T22:21:44.161Z,3.53
2019-06-08T22:24:12.959Z,2.50
2019-06-08T22:26:41.815Z,1.60
2019-06-08T22:29:10.631Z,1.33
2019-06-08T22:31:39.376Z,1.30
2019-06-08T22:34:08.346Z,1.20
2019-06-08T22:36:37.347Z,1.17
2019-06-08T22:39:08.243Z,1.30
2019-06-08T22:41:37.446Z,1.20
2019-06-08T22:44:08.322Z,1.60
2019-06-08T22:46:37.638Z,1.40
2019-06-08T22:49:08.107Z,1.17
2019-06-08T22:51:38.333Z,1.30
2019-06-08T22:54:08.078Z,1.50
2019-06-08T22:56:37.363Z,1.40
2019-06-08T22:59:08.954Z,1.40
2019-06-08T23:01:38.409Z,1.13
2019-06-08T23:04:08.986Z,1.23
2019-06-08T23:06:38.623Z,1.30
2019-06-08T23:09:08.857Z,1.30
2019-06-08T23:11:37.843Z,1.10
2019-06-08T23:14:12.969Z,1.60
2019-06-08T23:16:37.447Z,1.60
2019-06-08T23:19:08.025Z,1.50
2019-06-08T23:21:38.230Z,1.80
2019-06-08T23:24:08.509Z,1.70
2019-06-08T23:26:37.640Z,1.27
2019-06-08T23:29:07.766Z,1.53
2019-06-08T23:31:38.750Z,1.20
2019-06-08T23:34:11.099Z,1.50
2019-06-08T23:36:51.972Z,1.40
2019-06-08T23:39:08.869Z,1.53
2019-06-08T23:41:37.817Z,1.37
2019-06-08T23:44:07.830Z,1.50
2019-06-08T23:46:38.055Z,1.60
2019-06-08T23:49:07.751Z,1.33
2019-06-08T23:51:38.111Z,1.70
2019-06-08T23:54:10.498Z,1.60
2019-06-08T23:56:37.619Z,1.50
2019-06-08T23:59:07.302Z,1.53
